sensor_id;sensor_type;location;lat;lon;timestamp;P1;durP1;ratioP1;P2;durP2;ratioP2
23642;SDS011;11998;55.788;37.572;2022-12-18T00:00:30;15.85;;;8.95;;
23642;SDS011;11998;55.788;37.572;2022-12-18T00:01:50;18.55;;;11.73;;
23642;SDS011;11998;55.788;37.572;2022-12-18T00:03:11;18.23;;;12.52;;
23642;SDS011;11998;55.788;37.572;2022-12-18T00:04:32;18.65;;;9.90;;
23642;SDS011;11998;55.788;37.572;2022-12-18T00:05:53;13.65;;;9.63;;
23642;SDS011;11998;55.788;37.572;2022-12-18T00:07:14;15.98;;;10.82;;
23642;SDS011;11998;55.788;37.572;2022-12-18T00:08:35;19.92;;;12.68;;
23642;SDS011;11998;55.788;37.572;2022-12-18T00:09:56;20.45;;;10.23;;
23642;SDS011;11998;55.788;37.572;2022-12-18T00:11:18;15.25;;;9.93;;
23642;SDS011;11998;55.788;37.572;2022-12-18T00:12:41;21.95;;;9.25;;
23642;SDS011;11998;55.788;37.572;2022-12-18T00:14:01;16.85;;;10.82;;
23642;SDS011;11998;55.788;37.572;2022-12-18T00:15:22;16.23;;;10.80;;
23642;SDS011;11998;55.788;37.572;2022-12-18T00:16:44;12.77;;;7.47;;
23642;SDS011;11998;55.788;37.572;2022-12-18T00:18:06;18.52;;;12.00;;
23642;SDS011;11998;55.788;37.572;2022-12-18T00:19:27;13.13;;;9.20;;
23642;SDS011;11998;55.788;37.572;2022-12-18T00:20:48;16.13;;;9.13;;
23642;SDS011;11998;55.788;37.572;2022-12-18T00:22:08;20.30;;;11.23;;
23642;SDS011;11998;55.788;37.572;2022-12-18T00:23:29;12.85;;;8.52;;
23642;SDS011;11998;55.788;37.572;2022-12-18T00:24:51;15.32;;;9.52;;
23642;SDS011;11998;55.788;37.572;2022-12-18T00:26:19;12.20;;;8.48;;
23642;SDS011;11998;55.788;37.572;2022-12-18T00:27:42;19.45;;;9.80;;
23642;SDS011;11998;55.788;37.572;2022-12-18T00:29:07;14.80;;;8.77;;
23642;SDS011;11998;55.788;37.572;2022-12-18T00:30:31;18.20;;;10.60;;
23642;SDS011;11998;55.788;37.572;2022-12-18T00:31:52;15.85;;;10.40;;
23642;SDS011;11998;55.788;37.572;2022-12-18T00:33:13;19.42;;;11.63;;
23642;SDS011;11998;55.788;37.572;2022-12-18T00:34:33;12.90;;;9.20;;
23642;SDS011;11998;55.788;37.572;2022-12-18T00:35:54;15.85;;;11.00;;
23642;SDS011;11998;55.788;37.572;2022-12-18T00:37:20;18.90;;;10.30;;
23642;SDS011;11998;55.788;37.572;2022-12-18T00:38:41;16.95;;;10.27;;
23642;SDS011;11998;55.788;37.572;2022-12-18T00:40:02;15.40;;;9.50;;
23642;SDS011;11998;55.788;37.572;2022-12-18T00:41:24;12.75;;;7.97;;
23642;SDS011;11998;55.788;37.572;2022-12-18T00:43:03;12.02;;;7.75;;
23642;SDS011;11998;55.788;37.572;2022-12-18T00:44:24;17.33;;;10.05;;
23642;SDS011;11998;55.788;37.572;2022-12-18T00:45:45;20.40;;;11.75;;
23642;SDS011;11998;55.788;37.572;2022-12-18T00:47:06;18.70;;;11.02;;
23642;SDS011;11998;55.788;37.572;2022-12-18T00:48:27;18.52;;;10.48;;
23642;SDS011;11998;55.788;37.572;2022-12-18T00:49:47;14.75;;;8.90;;
23642;SDS011;11998;55.788;37.572;2022-12-18T00:51:08;17.55;;;11.77;;
23642;SDS011;11998;55.788;37.572;2022-12-18T00:52:29;16.15;;;10.98;;
23642;SDS011;11998;55.788;37.572;2022-12-18T00:53:50;14.35;;;8.43;;
23642;SDS011;11998;55.788;37.572;2022-12-18T00:55:11;17.65;;;11.23;;
23642;SDS011;11998;55.788;37.572;2022-12-18T00:56:32;14.55;;;9.93;;
23642;SDS011;11998;55.788;37.572;2022-12-18T00:57:55;11.70;;;7.82;;
23642;SDS011;11998;55.788;37.572;2022-12-18T00:59:16;14.65;;;10.25;;
23642;SDS011;11998;55.788;37.572;2022-12-18T01:00:38;11.25;;;7.30;;
23642;SDS011;11998;55.788;37.572;2022-12-18T01:01:59;15.95;;;10.00;;
23642;SDS011;11998;55.788;37.572;2022-12-18T01:03:19;13.52;;;8.23;;
23642;SDS011;11998;55.788;37.572;2022-12-18T01:04:40;13.10;;;8.50;;
23642;SDS011;11998;55.788;37.572;2022-12-18T01:06:05;11.68;;;7.35;;
23642;SDS011;11998;55.788;37.572;2022-12-18T01:07:27;15.60;;;9.52;;
23642;SDS011;11998;55.788;37.572;2022-12-18T01:08:48;14.10;;;8.52;;
23642;SDS011;11998;55.788;37.572;2022-12-18T01:10:09;14.10;;;8.82;;
23642;SDS011;11998;55.788;37.572;2022-12-18T01:11:32;12.00;;;8.32;;
23642;SDS011;11998;55.788;37.572;2022-12-18T01:12:53;13.10;;;9.30;;
23642;SDS011;11998;55.788;37.572;2022-12-18T01:14:13;14.35;;;9.48;;
23642;SDS011;11998;55.788;37.572;2022-12-18T01:15:34;16.58;;;10.02;;
23642;SDS011;11998;55.788;37.572;2022-12-18T01:16:55;14.38;;;9.35;;
23642;SDS011;11998;55.788;37.572;2022-12-18T01:18:16;15.43;;;9.75;;
23642;SDS011;11998;55.788;37.572;2022-12-18T01:19:37;14.90;;;10.25;;
23642;SDS011;11998;55.788;37.572;2022-12-18T01:20:58;11.57;;;7.22;;
23642;SDS011;11998;55.788;37.572;2022-12-18T01:22:18;16.05;;;10.32;;
23642;SDS011;11998;55.788;37.572;2022-12-18T01:23:39;14.63;;;9.30;;
23642;SDS011;11998;55.788;37.572;2022-12-18T01:25:00;18.00;;;10.57;;
23642;SDS011;11998;55.788;37.572;2022-12-18T01:26:22;13.18;;;8.80;;
23642;SDS011;11998;55.788;37.572;2022-12-18T01:27:44;16.67;;;10.05;;
23642;SDS011;11998;55.788;37.572;2022-12-18T01:29:05;13.98;;;9.50;;
23642;SDS011;11998;55.788;37.572;2022-12-18T01:30:25;13.10;;;8.40;;
23642;SDS011;11998;55.788;37.572;2022-12-18T01:31:46;16.08;;;9.90;;
23642;SDS011;11998;55.788;37.572;2022-12-18T01:33:07;15.77;;;7.50;;
23642;SDS011;11998;55.788;37.572;2022-12-18T01:34:28;13.75;;;8.38;;
23642;SDS011;11998;55.788;37.572;2022-12-18T01:35:49;18.73;;;9.95;;
23642;SDS011;11998;55.788;37.572;2022-12-18T01:37:09;14.75;;;9.68;;
23642;SDS011;11998;55.788;37.572;2022-12-18T01:38:33;13.10;;;8.88;;
23642;SDS011;11998;55.788;37.572;2022-12-18T01:39:54;14.05;;;8.38;;
23642;SDS011;11998;55.788;37.572;2022-12-18T01:41:16;15.32;;;8.82;;
23642;SDS011;11998;55.788;37.572;2022-12-18T01:42:38;14.10;;;9.38;;
23642;SDS011;11998;55.788;37.572;2022-12-18T01:43:59;13.52;;;7.90;;
23642;SDS011;11998;55.788;37.572;2022-12-18T01:46:41;15.02;;;8.95;;
23642;SDS011;11998;55.788;37.572;2022-12-18T01:48:03;14.40;;;9.85;;
23642;SDS011;11998;55.788;37.572;2022-12-18T01:49:27;11.65;;;8.07;;
23642;SDS011;11998;55.788;37.572;2022-12-18T01:50:47;15.25;;;9.43;;
23642;SDS011;11998;55.788;37.572;2022-12-18T01:52:10;13.18;;;9.05;;
23642;SDS011;11998;55.788;37.572;2022-12-18T01:53:31;13.45;;;8.70;;
23642;SDS011;11998;55.788;37.572;2022-12-18T01:54:52;12.90;;;8.45;;
23642;SDS011;11998;55.788;37.572;2022-12-18T01:56:15;10.10;;;6.97;;
23642;SDS011;11998;55.788;37.572;2022-12-18T01:57:38;25.25;;;8.27;;
23642;SDS011;11998;55.788;37.572;2022-12-18T01:59:00;8.95;;;5.97;;
23642;SDS011;11998;55.788;37.572;2022-12-18T02:00:24;12.90;;;7.60;;
23642;SDS011;11998;55.788;37.572;2022-12-18T02:01:46;13.45;;;9.15;;
23642;SDS011;11998;55.788;37.572;2022-12-18T02:03:07;13.10;;;9.05;;
23642;SDS011;11998;55.788;37.572;2022-12-18T02:04:28;12.23;;;8.38;;
23642;SDS011;11998;55.788;37.572;2022-12-18T02:05:50;13.43;;;9.07;;
23642;SDS011;11998;55.788;37.572;2022-12-18T02:09:13;11.18;;;7.25;;
23642;SDS011;11998;55.788;37.572;2022-12-18T02:12:19;15.95;;;9.30;;
23642;SDS011;11998;55.788;37.572;2022-12-18T02:16:51;11.88;;;7.97;;
23642;SDS011;11998;55.788;37.572;2022-12-18T02:18:22;13.13;;;8.38;;
23642;SDS011;11998;55.788;37.572;2022-12-18T02:21:48;14.27;;;9.05;;
23642;SDS011;11998;55.788;37.572;2022-12-18T02:28:23;12.52;;;7.90;;
23642;SDS011;11998;55.788;37.572;2022-12-18T02:29:48;14.20;;;8.52;;
23642;SDS011;11998;55.788;37.572;2022-12-18T02:31:13;12.95;;;8.18;;
23642;SDS011;11998;55.788;37.572;2022-12-18T02:32:41;12.48;;;8.75;;
23642;SDS011;11998;55.788;37.572;2022-12-18T02:34:05;13.32;;;8.90;;
23642;SDS011;11998;55.788;37.572;2022-12-18T02:35:29;12.25;;;7.72;;
23642;SDS011;11998;55.788;37.572;2022-12-18T02:36:51;11.88;;;8.50;;
23642;SDS011;11998;55.788;37.572;2022-12-18T02:38:14;12.02;;;7.57;;
23642;SDS011;11998;55.788;37.572;2022-12-18T02:39:37;14.95;;;8.25;;
23642;SDS011;11998;55.788;37.572;2022-12-18T02:41:00;13.20;;;8.50;;
23642;SDS011;11998;55.788;37.572;2022-12-18T02:42:23;11.82;;;7.78;;
23642;SDS011;11998;55.788;37.572;2022-12-18T02:43:46;12.68;;;8.82;;
23642;SDS011;11998;55.788;37.572;2022-12-18T02:45:19;13.57;;;9.38;;
23642;SDS011;11998;55.788;37.572;2022-12-18T02:46:41;11.90;;;7.85;;
23642;SDS011;11998;55.788;37.572;2022-12-18T02:48:04;9.85;;;6.07;;
23642;SDS011;11998;55.788;37.572;2022-12-18T02:49:34;9.10;;;5.95;;
23642;SDS011;11998;55.788;37.572;2022-12-18T02:56:43;12.70;;;8.20;;
23642;SDS011;11998;55.788;37.572;2022-12-18T03:00:04;13.48;;;8.25;;
23642;SDS011;11998;55.788;37.572;2022-12-18T03:01:33;15.63;;;8.75;;
23642;SDS011;11998;55.788;37.572;2022-12-18T03:04:29;13.75;;;8.45;;
23642;SDS011;11998;55.788;37.572;2022-12-18T03:06:06;13.48;;;8.88;;
23642;SDS011;11998;55.788;37.572;2022-12-18T03:07:37;14.07;;;8.07;;
23642;SDS011;11998;55.788;37.572;2022-12-18T03:10:28;12.57;;;7.55;;
23642;SDS011;11998;55.788;37.572;2022-12-18T03:11:56;12.13;;;8.68;;
23642;SDS011;11998;55.788;37.572;2022-12-18T03:13:50;12.82;;;8.05;;
23642;SDS011;11998;55.788;37.572;2022-12-18T03:15:17;13.57;;;9.05;;
23642;SDS011;11998;55.788;37.572;2022-12-18T03:16:43;12.63;;;8.13;;
23642;SDS011;11998;55.788;37.572;2022-12-18T03:18:18;14.32;;;8.93;;
23642;SDS011;11998;55.788;37.572;2022-12-18T03:19:44;12.75;;;7.88;;
23642;SDS011;11998;55.788;37.572;2022-12-18T03:21:07;11.40;;;8.85;;
23642;SDS011;11998;55.788;37.572;2022-12-18T03:22:32;11.30;;;7.82;;
23642;SDS011;11998;55.788;37.572;2022-12-18T03:23:55;13.05;;;8.65;;
23642;SDS011;11998;55.788;37.572;2022-12-18T03:25:17;14.75;;;8.55;;
23642;SDS011;11998;55.788;37.572;2022-12-18T03:26:40;11.80;;;8.32;;
23642;SDS011;11998;55.788;37.572;2022-12-18T03:28:05;12.55;;;7.50;;
23642;SDS011;11998;55.788;37.572;2022-12-18T03:31:02;12.80;;;8.05;;
23642;SDS011;11998;55.788;37.572;2022-12-18T03:32:26;13.93;;;9.05;;
23642;SDS011;11998;55.788;37.572;2022-12-18T03:33:52;11.73;;;8.63;;
23642;SDS011;11998;55.788;37.572;2022-12-18T03:35:20;10.30;;;7.07;;
23642;SDS011;11998;55.788;37.572;2022-12-18T03:36:44;11.75;;;7.25;;
23642;SDS011;11998;55.788;37.572;2022-12-18T03:38:06;10.70;;;7.15;;
23642;SDS011;11998;55.788;37.572;2022-12-18T03:39:27;11.75;;;7.43;;
23642;SDS011;11998;55.788;37.572;2022-12-18T03:40:50;11.63;;;7.85;;
23642;SDS011;11998;55.788;37.572;2022-12-18T03:42:27;11.43;;;7.18;;
23642;SDS011;11998;55.788;37.572;2022-12-18T03:44:02;10.13;;;7.05;;
23642;SDS011;11998;55.788;37.572;2022-12-18T03:47:18;13.75;;;7.80;;
23642;SDS011;11998;55.788;37.572;2022-12-18T03:48:43;12.50;;;7.95;;
23642;SDS011;11998;55.788;37.572;2022-12-18T03:51:48;13.40;;;8.02;;
23642;SDS011;11998;55.788;37.572;2022-12-18T03:53:23;10.80;;;7.38;;
23642;SDS011;11998;55.788;37.572;2022-12-18T03:55:05;10.10;;;6.55;;
23642;SDS011;11998;55.788;37.572;2022-12-18T03:56:29;9.80;;;6.82;;
23642;SDS011;11998;55.788;37.572;2022-12-18T03:57:53;13.50;;;7.80;;
23642;SDS011;11998;55.788;37.572;2022-12-18T03:59:15;10.43;;;6.82;;
23642;SDS011;11998;55.788;37.572;2022-12-18T04:00:37;11.98;;;7.88;;
23642;SDS011;11998;55.788;37.572;2022-12-18T04:01:59;10.60;;;6.93;;
23642;SDS011;11998;55.788;37.572;2022-12-18T04:03:22;10.20;;;7.07;;
23642;SDS011;11998;55.788;37.572;2022-12-18T04:04:45;9.07;;;5.45;;
23642;SDS011;11998;55.788;37.572;2022-12-18T04:06:08;19.58;;;8.07;;
23642;SDS011;11998;55.788;37.572;2022-12-18T04:07:30;10.80;;;7.43;;
23642;SDS011;11998;55.788;37.572;2022-12-18T04:08:52;10.15;;;7.45;;
23642;SDS011;11998;55.788;37.572;2022-12-18T04:10:13;12.48;;;8.93;;
23642;SDS011;11998;55.788;37.572;2022-12-18T04:11:36;12.65;;;8.82;;
23642;SDS011;11998;55.788;37.572;2022-12-18T04:12:57;11.80;;;8.32;;
23642;SDS011;11998;55.788;37.572;2022-12-18T04:14:18;10.55;;;7.63;;
23642;SDS011;11998;55.788;37.572;2022-12-18T04:15:39;10.85;;;7.80;;
23642;SDS011;11998;55.788;37.572;2022-12-18T04:17:01;21.90;;;8.20;;
23642;SDS011;11998;55.788;37.572;2022-12-18T04:18:23;13.65;;;7.78;;
23642;SDS011;11998;55.788;37.572;2022-12-18T04:19:44;13.35;;;8.52;;
23642;SDS011;11998;55.788;37.572;2022-12-18T04:21:05;12.93;;;7.68;;
23642;SDS011;11998;55.788;37.572;2022-12-18T04:22:25;10.95;;;6.90;;
23642;SDS011;11998;55.788;37.572;2022-12-18T04:23:46;10.48;;;6.72;;
23642;SDS011;11998;55.788;37.572;2022-12-18T04:25:07;13.25;;;7.97;;
23642;SDS011;11998;55.788;37.572;2022-12-18T04:26:28;11.60;;;8.05;;
23642;SDS011;11998;55.788;37.572;2022-12-18T04:27:49;12.45;;;7.95;;
23642;SDS011;11998;55.788;37.572;2022-12-18T04:29:10;10.10;;;7.00;;
23642;SDS011;11998;55.788;37.572;2022-12-18T04:30:31;12.77;;;7.80;;
23642;SDS011;11998;55.788;37.572;2022-12-18T04:31:52;11.20;;;7.10;;
23642;SDS011;11998;55.788;37.572;2022-12-18T04:33:15;10.90;;;8.25;;
23642;SDS011;11998;55.788;37.572;2022-12-18T04:34:36;9.93;;;7.22;;
23642;SDS011;11998;55.788;37.572;2022-12-18T04:35:57;11.20;;;7.50;;
23642;SDS011;11998;55.788;37.572;2022-12-18T04:37:18;10.02;;;7.00;;
23642;SDS011;11998;55.788;37.572;2022-12-18T04:38:39;10.25;;;6.97;;
23642;SDS011;11998;55.788;37.572;2022-12-18T04:40:00;12.43;;;7.50;;
23642;SDS011;11998;55.788;37.572;2022-12-18T04:41:20;13.65;;;8.27;;
23642;SDS011;11998;55.788;37.572;2022-12-18T04:42:41;10.48;;;7.55;;
23642;SDS011;11998;55.788;37.572;2022-12-18T04:44:02;11.10;;;7.63;;
23642;SDS011;11998;55.788;37.572;2022-12-18T04:45:24;10.70;;;7.65;;
23642;SDS011;11998;55.788;37.572;2022-12-18T04:46:44;10.95;;;7.18;;
23642;SDS011;11998;55.788;37.572;2022-12-18T04:48:05;12.13;;;8.00;;
23642;SDS011;11998;55.788;37.572;2022-12-18T04:49:26;11.73;;;7.03;;
23642;SDS011;11998;55.788;37.572;2022-12-18T04:50:47;11.73;;;7.50;;
23642;SDS011;11998;55.788;37.572;2022-12-18T04:52:08;11.93;;;7.38;;
23642;SDS011;11998;55.788;37.572;2022-12-18T04:53:29;12.65;;;7.18;;
23642;SDS011;11998;55.788;37.572;2022-12-18T04:54:50;10.80;;;7.07;;
23642;SDS011;11998;55.788;37.572;2022-12-18T04:56:12;10.75;;;6.85;;
23642;SDS011;11998;55.788;37.572;2022-12-18T04:57:34;11.32;;;7.55;;
23642;SDS011;11998;55.788;37.572;2022-12-18T04:58:55;9.30;;;6.38;;
23642;SDS011;11998;55.788;37.572;2022-12-18T05:00:16;13.98;;;8.13;;
23642;SDS011;11998;55.788;37.572;2022-12-18T05:01:37;11.02;;;7.53;;
23642;SDS011;11998;55.788;37.572;2022-12-18T05:02:57;11.25;;;7.32;;
23642;SDS011;11998;55.788;37.572;2022-12-18T05:04:22;13.45;;;7.50;;
23642;SDS011;11998;55.788;37.572;2022-12-18T05:05:43;11.55;;;7.30;;
23642;SDS011;11998;55.788;37.572;2022-12-18T05:07:03;10.40;;;7.47;;
23642;SDS011;11998;55.788;37.572;2022-12-18T05:08:24;12.02;;;7.85;;
23642;SDS011;11998;55.788;37.572;2022-12-18T05:09:45;12.82;;;8.43;;
23642;SDS011;11998;55.788;37.572;2022-12-18T05:11:10;14.93;;;8.40;;
23642;SDS011;11998;55.788;37.572;2022-12-18T05:12:35;12.60;;;7.85;;
23642;SDS011;11998;55.788;37.572;2022-12-18T05:14:16;16.17;;;8.50;;
23642;SDS011;11998;55.788;37.572;2022-12-18T05:15:37;12.68;;;8.07;;
23642;SDS011;11998;55.788;37.572;2022-12-18T05:16:58;13.25;;;8.38;;
23642;SDS011;11998;55.788;37.572;2022-12-18T05:18:19;12.32;;;8.02;;
23642;SDS011;11998;55.788;37.572;2022-12-18T05:19:40;14.60;;;8.35;;
23642;SDS011;11998;55.788;37.572;2022-12-18T05:21:01;14.43;;;8.60;;
23642;SDS011;11998;55.788;37.572;2022-12-18T05:22:22;14.05;;;7.60;;
23642;SDS011;11998;55.788;37.572;2022-12-18T05:23:43;26.58;;;7.78;;
23642;SDS011;11998;55.788;37.572;2022-12-18T05:25:04;11.23;;;8.10;;
23642;SDS011;11998;55.788;37.572;2022-12-18T05:26:25;14.75;;;9.07;;
23642;SDS011;11998;55.788;37.572;2022-12-18T05:27:46;12.40;;;8.20;;
23642;SDS011;11998;55.788;37.572;2022-12-18T05:29:06;13.70;;;8.30;;
23642;SDS011;11998;55.788;37.572;2022-12-18T05:30:27;11.93;;;8.00;;
23642;SDS011;11998;55.788;37.572;2022-12-18T05:31:48;14.13;;;8.98;;
23642;SDS011;11998;55.788;37.572;2022-12-18T05:33:09;10.68;;;7.40;;
23642;SDS011;11998;55.788;37.572;2022-12-18T05:34:30;12.80;;;8.13;;
23642;SDS011;11998;55.788;37.572;2022-12-18T05:35:52;14.82;;;7.05;;
23642;SDS011;11998;55.788;37.572;2022-12-18T05:37:23;14.18;;;8.00;;
23642;SDS011;11998;55.788;37.572;2022-12-18T05:38:44;9.80;;;6.15;;
23642;SDS011;11998;55.788;37.572;2022-12-18T05:40:05;12.65;;;7.35;;
23642;SDS011;11998;55.788;37.572;2022-12-18T05:41:26;11.30;;;7.45;;
23642;SDS011;11998;55.788;37.572;2022-12-18T05:42:47;18.27;;;7.82;;
23642;SDS011;11998;55.788;37.572;2022-12-18T05:44:08;11.13;;;6.95;;
23642;SDS011;11998;55.788;37.572;2022-12-18T05:45:29;9.73;;;6.57;;
23642;SDS011;11998;55.788;37.572;2022-12-18T05:46:49;8.43;;;6.47;;
23642;SDS011;11998;55.788;37.572;2022-12-18T05:48:13;11.32;;;7.22;;
23642;SDS011;11998;55.788;37.572;2022-12-18T05:49:35;12.02;;;7.82;;
23642;SDS011;11998;55.788;37.572;2022-12-18T05:50:56;12.57;;;8.57;;
23642;SDS011;11998;55.788;37.572;2022-12-18T05:52:24;14.68;;;9.25;;
23642;SDS011;11998;55.788;37.572;2022-12-18T05:53:45;17.67;;;11.63;;
23642;SDS011;11998;55.788;37.572;2022-12-18T05:55:07;21.20;;;7.50;;
23642;SDS011;11998;55.788;37.572;2022-12-18T05:56:27;11.65;;;7.80;;
23642;SDS011;11998;55.788;37.572;2022-12-18T05:57:48;14.77;;;7.78;;
23642;SDS011;11998;55.788;37.572;2022-12-18T05:59:09;11.27;;;7.95;;
23642;SDS011;11998;55.788;37.572;2022-12-18T06:00:30;10.75;;;7.25;;
23642;SDS011;11998;55.788;37.572;2022-12-18T06:01:52;11.43;;;7.38;;
23642;SDS011;11998;55.788;37.572;2022-12-18T06:03:14;13.43;;;8.80;;
23642;SDS011;11998;55.788;37.572;2022-12-18T06:04:35;28.25;;;11.18;;
23642;SDS011;11998;55.788;37.572;2022-12-18T06:05:56;15.90;;;9.80;;
23642;SDS011;11998;55.788;37.572;2022-12-18T06:07:16;13.27;;;8.10;;
23642;SDS011;11998;55.788;37.572;2022-12-18T06:08:37;9.48;;;6.28;;
23642;SDS011;11998;55.788;37.572;2022-12-18T06:09:58;10.27;;;7.18;;
23642;SDS011;11998;55.788;37.572;2022-12-18T06:11:21;9.80;;;7.00;;
23642;SDS011;11998;55.788;37.572;2022-12-18T06:12:43;11.50;;;7.00;;
23642;SDS011;11998;55.788;37.572;2022-12-18T06:14:05;11.98;;;6.68;;
23642;SDS011;11998;55.788;37.572;2022-12-18T06:15:27;35.40;;;8.35;;
23642;SDS011;11998;55.788;37.572;2022-12-18T06:16:49;12.23;;;5.75;;
23642;SDS011;11998;55.788;37.572;2022-12-18T06:18:11;8.95;;;5.15;;
23642;SDS011;11998;55.788;37.572;2022-12-18T06:19:32;7.93;;;4.80;;
23642;SDS011;11998;55.788;37.572;2022-12-18T06:20:56;13.20;;;5.82;;
23642;SDS011;11998;55.788;37.572;2022-12-18T06:22:18;9.75;;;5.80;;
23642;SDS011;11998;55.788;37.572;2022-12-18T06:23:38;11.30;;;5.60;;
23642;SDS011;11998;55.788;37.572;2022-12-18T06:24:59;11.75;;;5.82;;
23642;SDS011;11998;55.788;37.572;2022-12-18T06:26:20;11.57;;;6.30;;
23642;SDS011;11998;55.788;37.572;2022-12-18T06:27:41;10.27;;;5.88;;
23642;SDS011;11998;55.788;37.572;2022-12-18T06:29:02;10.00;;;5.65;;
23642;SDS011;11998;55.788;37.572;2022-12-18T06:30:23;10.38;;;5.50;;
23642;SDS011;11998;55.788;37.572;2022-12-18T06:31:44;9.20;;;5.78;;
23642;SDS011;11998;55.788;37.572;2022-12-18T06:33:05;8.63;;;6.07;;
23642;SDS011;11998;55.788;37.572;2022-12-18T06:34:26;7.60;;;4.82;;
23642;SDS011;11998;55.788;37.572;2022-12-18T06:35:47;11.50;;;6.13;;
23642;SDS011;11998;55.788;37.572;2022-12-18T06:37:08;8.82;;;5.63;;
23642;SDS011;11998;55.788;37.572;2022-12-18T06:38:29;9.73;;;5.55;;
23642;SDS011;11998;55.788;37.572;2022-12-18T06:39:52;9.82;;;5.70;;
23642;SDS011;11998;55.788;37.572;2022-12-18T06:41:15;10.60;;;5.50;;
23642;SDS011;11998;55.788;37.572;2022-12-18T06:42:38;12.05;;;7.47;;
23642;SDS011;11998;55.788;37.572;2022-12-18T06:43:58;8.52;;;5.72;;
23642;SDS011;11998;55.788;37.572;2022-12-18T06:45:19;11.05;;;6.95;;
23642;SDS011;11998;55.788;37.572;2022-12-18T06:46:40;10.07;;;7.32;;
23642;SDS011;11998;55.788;37.572;2022-12-18T06:48:01;10.55;;;7.32;;
23642;SDS011;11998;55.788;37.572;2022-12-18T06:49:22;12.43;;;7.82;;
23642;SDS011;11998;55.788;37.572;2022-12-18T06:50:42;10.65;;;7.65;;
23642;SDS011;11998;55.788;37.572;2022-12-18T06:52:03;10.85;;;7.40;;
23642;SDS011;11998;55.788;37.572;2022-12-18T06:53:24;11.80;;;7.53;;
23642;SDS011;11998;55.788;37.572;2022-12-18T06:54:45;10.48;;;7.32;;
23642;SDS011;11998;55.788;37.572;2022-12-18T06:56:06;10.60;;;7.25;;
23642;SDS011;11998;55.788;37.572;2022-12-18T06:57:28;15.10;;;7.20;;
23642;SDS011;11998;55.788;37.572;2022-12-18T06:58:52;10.73;;;6.90;;
23642;SDS011;11998;55.788;37.572;2022-12-18T07:00:13;16.85;;;9.45;;
23642;SDS011;11998;55.788;37.572;2022-12-18T07:01:34;13.90;;;8.90;;
23642;SDS011;11998;55.788;37.572;2022-12-18T07:02:55;12.15;;;7.82;;
23642;SDS011;11998;55.788;37.572;2022-12-18T07:04:16;10.98;;;6.10;;
23642;SDS011;11998;55.788;37.572;2022-12-18T07:05:40;12.13;;;7.18;;
23642;SDS011;11998;55.788;37.572;2022-12-18T07:07:01;13.40;;;7.90;;
23642;SDS011;11998;55.788;37.572;2022-12-18T07:08:22;13.35;;;7.25;;
23642;SDS011;11998;55.788;37.572;2022-12-18T07:09:43;11.40;;;8.05;;
23642;SDS011;11998;55.788;37.572;2022-12-18T07:11:04;11.23;;;7.50;;
23642;SDS011;11998;55.788;37.572;2022-12-18T07:12:26;11.95;;;6.82;;
23642;SDS011;11998;55.788;37.572;2022-12-18T07:13:47;8.63;;;5.78;;
23642;SDS011;11998;55.788;37.572;2022-12-18T07:15:08;11.65;;;6.88;;
23642;SDS011;11998;55.788;37.572;2022-12-18T07:16:29;11.73;;;7.50;;
23642;SDS011;11998;55.788;37.572;2022-12-18T07:17:50;11.55;;;7.50;;
23642;SDS011;11998;55.788;37.572;2022-12-18T07:19:11;14.63;;;7.55;;
23642;SDS011;11998;55.788;37.572;2022-12-18T07:20:32;17.73;;;8.02;;
23642;SDS011;11998;55.788;37.572;2022-12-18T07:21:53;11.23;;;6.25;;
23642;SDS011;11998;55.788;37.572;2022-12-18T07:23:14;13.43;;;7.85;;
23642;SDS011;11998;55.788;37.572;2022-12-18T07:24:35;10.98;;;7.35;;
23642;SDS011;11998;55.788;37.572;2022-12-18T07:26:07;12.82;;;7.68;;
23642;SDS011;11998;55.788;37.572;2022-12-18T07:27:29;10.60;;;6.97;;
23642;SDS011;11998;55.788;37.572;2022-12-18T07:28:50;12.38;;;7.63;;
23642;SDS011;11998;55.788;37.572;2022-12-18T07:30:11;11.88;;;7.70;;
23642;SDS011;11998;55.788;37.572;2022-12-18T07:31:33;10.07;;;6.95;;
23642;SDS011;11998;55.788;37.572;2022-12-18T07:32:54;11.40;;;7.85;;
23642;SDS011;11998;55.788;37.572;2022-12-18T07:34:15;10.32;;;7.32;;
23642;SDS011;11998;55.788;37.572;2022-12-18T07:35:38;10.82;;;7.38;;
23642;SDS011;11998;55.788;37.572;2022-12-18T07:36:59;9.63;;;6.95;;
23642;SDS011;11998;55.788;37.572;2022-12-18T07:38:20;10.18;;;7.30;;
23642;SDS011;11998;55.788;37.572;2022-12-18T07:39:42;11.15;;;6.72;;
23642;SDS011;11998;55.788;37.572;2022-12-18T07:41:07;11.10;;;7.40;;
23642;SDS011;11998;55.788;37.572;2022-12-18T07:42:30;10.95;;;6.63;;
23642;SDS011;11998;55.788;37.572;2022-12-18T07:43:50;10.40;;;6.30;;
23642;SDS011;11998;55.788;37.572;2022-12-18T07:45:11;9.30;;;6.43;;
23642;SDS011;11998;55.788;37.572;2022-12-18T07:46:32;10.18;;;6.95;;
23642;SDS011;11998;55.788;37.572;2022-12-18T07:47:53;10.25;;;6.50;;
23642;SDS011;11998;55.788;37.572;2022-12-18T07:49:14;11.43;;;6.30;;
23642;SDS011;11998;55.788;37.572;2022-12-18T07:50:35;10.10;;;7.28;;
23642;SDS011;11998;55.788;37.572;2022-12-18T07:51:57;12.68;;;7.28;;
23642;SDS011;11998;55.788;37.572;2022-12-18T07:53:18;9.63;;;6.65;;
23642;SDS011;11998;55.788;37.572;2022-12-18T07:54:39;10.90;;;7.38;;
23642;SDS011;11998;55.788;37.572;2022-12-18T07:56:01;11.50;;;7.63;;
23642;SDS011;11998;55.788;37.572;2022-12-18T07:57:27;10.50;;;7.13;;
23642;SDS011;11998;55.788;37.572;2022-12-18T07:58:48;10.30;;;6.78;;
23642;SDS011;11998;55.788;37.572;2022-12-18T08:00:09;10.38;;;7.15;;
23642;SDS011;11998;55.788;37.572;2022-12-18T08:01:30;10.80;;;7.60;;
23642;SDS011;11998;55.788;37.572;2022-12-18T08:02:51;9.63;;;6.55;;
23642;SDS011;11998;55.788;37.572;2022-12-18T08:04:12;11.35;;;6.90;;
23642;SDS011;11998;55.788;37.572;2022-12-18T08:05:33;10.30;;;7.15;;
23642;SDS011;11998;55.788;37.572;2022-12-18T08:06:54;10.15;;;6.75;;
23642;SDS011;11998;55.788;37.572;2022-12-18T08:08:15;10.40;;;6.35;;
23642;SDS011;11998;55.788;37.572;2022-12-18T08:09:35;10.35;;;6.10;;
23642;SDS011;11998;55.788;37.572;2022-12-18T08:10:57;6.60;;;4.93;;
23642;SDS011;11998;55.788;37.572;2022-12-18T08:12:17;9.63;;;6.55;;
23642;SDS011;11998;55.788;37.572;2022-12-18T08:13:38;12.20;;;6.68;;
23642;SDS011;11998;55.788;37.572;2022-12-18T08:14:59;11.90;;;6.88;;
23642;SDS011;11998;55.788;37.572;2022-12-18T08:16:20;12.43;;;7.10;;
23642;SDS011;11998;55.788;37.572;2022-12-18T08:17:42;11.50;;;6.90;;
23642;SDS011;11998;55.788;37.572;2022-12-18T08:19:02;11.32;;;7.22;;
23642;SDS011;11998;55.788;37.572;2022-12-18T08:20:23;10.50;;;7.05;;
23642;SDS011;11998;55.788;37.572;2022-12-18T08:21:44;8.05;;;6.15;;
23642;SDS011;11998;55.788;37.572;2022-12-18T08:23:05;12.90;;;7.55;;
23642;SDS011;11998;55.788;37.572;2022-12-18T08:24:26;11.52;;;6.95;;
23642;SDS011;11998;55.788;37.572;2022-12-18T08:25:47;10.05;;;7.25;;
23642;SDS011;11998;55.788;37.572;2022-12-18T08:27:08;9.75;;;6.50;;
23642;SDS011;11998;55.788;37.572;2022-12-18T08:28:28;10.15;;;6.95;;
23642;SDS011;11998;55.788;37.572;2022-12-18T08:29:49;10.00;;;6.53;;
23642;SDS011;11998;55.788;37.572;2022-12-18T08:31:10;8.82;;;6.45;;
23642;SDS011;11998;55.788;37.572;2022-12-18T08:32:31;10.82;;;6.85;;